sensor_id;sensor_type;location;lat;lon;timestamp;P1;durP1;ratioP1;P2;durP2;ratioP2
38853;SDS011;24606;51.992;4.198;2023-11-21T00:02:32;11.45;;;1.60;;
38853;SDS011;24606;51.992;4.198;2023-11-21T00:07:34;9.30;;;5.10;;
38853;SDS011;24606;51.992;4.198;2023-11-21T00:12:37;11.27;;;3.80;;
38853;SDS011;24606;51.992;4.198;2023-11-21T00:17:42;7.90;;;4.68;;
38853;SDS011;24606;51.992;4.198;2023-11-21T00:22:43;12.43;;;5.20;;
38853;SDS011;24606;51.992;4.198;2023-11-21T00:27:46;12.20;;;5.27;;
38853;SDS011;24606;51.992;4.198;2023-11-21T00:32:48;6.90;;;3.88;;
38853;SDS011;24606;51.992;4.198;2023-11-21T00:37:50;13.73;;;6.77;;
38853;SDS011;24606;51.992;4.198;2023-11-21T00:42:53;12.98;;;6.57;;
38853;SDS011;24606;51.992;4.198;2023-11-21T00:47:56;11.55;;;7.40;;
38853;SDS011;24606;51.992;4.198;2023-11-21T00:52:58;5.80;;;2.72;;
38853;SDS011;24606;51.992;4.198;2023-11-21T00:58:01;10.52;;;6.18;;
38853;SDS011;24606;51.992;4.198;2023-11-21T01:03:04;10.60;;;6.18;;
38853;SDS011;24606;51.992;4.198;2023-11-21T01:08:07;12.60;;;5.93;;
38853;SDS011;24606;51.992;4.198;2023-11-21T01:13:11;13.13;;;7.07;;
38853;SDS011;24606;51.992;4.198;2023-11-21T01:18:15;13.13;;;6.53;;
38853;SDS011;24606;51.992;4.198;2023-11-21T01:23:17;7.67;;;4.97;;
38853;SDS011;24606;51.992;4.198;2023-11-21T01:28:20;10.13;;;5.53;;
38853;SDS011;24606;51.992;4.198;2023-11-21T01:33:21;10.27;;;5.43;;
38853;SDS011;24606;51.992;4.198;2023-11-21T01:38:25;12.77;;;6.25;;
38853;SDS011;24606;51.992;4.198;2023-11-21T01:43:28;12.30;;;6.53;;
38853;SDS011;24606;51.992;4.198;2023-11-21T01:48:31;9.75;;;4.45;;
38853;SDS011;24606;51.992;4.198;2023-11-21T01:53:33;8.68;;;5.03;;
38853;SDS011;24606;51.992;4.198;2023-11-21T01:58:38;8.40;;;5.10;;
38853;SDS011;24606;51.992;4.198;2023-11-21T02:03:40;11.13;;;5.22;;
38853;SDS011;24606;51.992;4.198;2023-11-21T02:08:42;8.50;;;4.80;;
38853;SDS011;24606;51.992;4.198;2023-11-21T02:13:46;8.73;;;4.68;;
38853;SDS011;24606;51.992;4.198;2023-11-21T02:18:50;7.07;;;4.18;;
38853;SDS011;24606;51.992;4.198;2023-11-21T02:23:54;6.97;;;4.53;;
38853;SDS011;24606;51.992;4.198;2023-11-21T02:28:56;6.68;;;4.03;;
38853;SDS011;24606;51.992;4.198;2023-11-21T02:33:58;7.75;;;3.85;;
38853;SDS011;24606;51.992;4.198;2023-11-21T02:39:01;6.53;;;4.37;;
38853;SDS011;24606;51.992;4.198;2023-11-21T02:44:03;4.47;;;3.33;;
38853;SDS011;24606;51.992;4.198;2023-11-21T02:49:06;6.25;;;3.70;;
38853;SDS011;24606;51.992;4.198;2023-11-21T02:54:11;5.70;;;3.28;;
38853;SDS011;24606;51.992;4.198;2023-11-21T02:59:13;6.85;;;3.40;;
38853;SDS011;24606;51.992;4.198;2023-11-21T03:04:15;6.75;;;3.53;;
38853;SDS011;24606;51.992;4.198;2023-11-21T03:19:23;3.42;;;2.33;;
38853;SDS011;24606;51.992;4.198;2023-11-21T03:24:26;4.90;;;3.03;;
38853;SDS011;24606;51.992;4.198;2023-11-21T03:29:27;3.95;;;2.50;;
38853;SDS011;24606;51.992;4.198;2023-11-21T03:34:31;5.13;;;3.10;;
38853;SDS011;24606;51.992;4.198;2023-11-21T03:39:34;3.80;;;2.47;;
38853;SDS011;24606;51.992;4.198;2023-11-21T03:44:36;4.07;;;2.47;;
38853;SDS011;24606;51.992;4.198;2023-11-21T03:49:37;5.07;;;2.73;;
38853;SDS011;24606;51.992;4.198;2023-11-21T03:54:41;3.23;;;2.10;;
38853;SDS011;24606;51.992;4.198;2023-11-21T04:15:29;4.50;;;2.20;;
38853;SDS011;24606;51.992;4.198;2023-11-21T04:20:31;3.60;;;2.15;;
38853;SDS011;24606;51.992;4.198;2023-11-21T04:25:33;3.72;;;2.22;;
38853;SDS011;24606;51.992;4.198;2023-11-21T04:30:36;3.97;;;2.60;;
38853;SDS011;24606;51.992;4.198;2023-11-21T04:35:39;3.88;;;2.25;;
38853;SDS011;24606;51.992;4.198;2023-11-21T04:40:41;3.20;;;2.10;;
38853;SDS011;24606;51.992;4.198;2023-11-21T04:45:44;3.33;;;1.88;;
38853;SDS011;24606;51.992;4.198;2023-11-21T04:50:46;3.13;;;1.90;;
38853;SDS011;24606;51.992;4.198;2023-11-21T04:55:48;2.83;;;1.80;;
38853;SDS011;24606;51.992;4.198;2023-11-21T05:00:51;3.50;;;2.33;;
38853;SDS011;24606;51.992;4.198;2023-11-21T05:05:52;3.22;;;1.00;;
38853;SDS011;24606;51.992;4.198;2023-11-21T05:10:55;3.17;;;2.20;;
38853;SDS011;24606;51.992;4.198;2023-11-21T05:15:59;2.40;;;1.48;;
38853;SDS011;24606;51.992;4.198;2023-11-21T05:21:04;2.33;;;1.45;;
38853;SDS011;24606;51.992;4.198;2023-11-21T05:31:09;1.73;;;1.13;;
38853;SDS011;24606;51.992;4.198;2023-11-21T05:36:11;1.98;;;1.13;;
38853;SDS011;24606;51.992;4.198;2023-11-21T05:41:13;3.43;;;1.17;;
38853;SDS011;24606;51.992;4.198;2023-11-21T05:46:17;1.80;;;0.98;;
38853;SDS011;24606;51.992;4.198;2023-11-21T05:51:19;1.42;;;0.88;;
38853;SDS011;24606;51.992;4.198;2023-11-21T05:56:21;1.80;;;0.80;;
38853;SDS011;24606;51.992;4.198;2023-11-21T06:01:24;4.82;;;1.23;;
38853;SDS011;24606;51.992;4.198;2023-11-21T06:06:28;2.58;;;1.10;;
38853;SDS011;24606;51.992;4.198;2023-11-21T06:11:31;1.92;;;0.90;;
38853;SDS011;24606;51.992;4.198;2023-11-21T06:16:34;1.42;;;0.77;;
38853;SDS011;24606;51.992;4.198;2023-11-21T06:21:36;0.98;;;0.70;;
38853;SDS011;24606;51.992;4.198;2023-11-21T06:26:38;1.10;;;0.70;;
38853;SDS011;24606;51.992;4.198;2023-11-21T06:41:45;0.93;;;0.52;;
38853;SDS011;24606;51.992;4.198;2023-11-21T06:46:51;2.85;;;0.75;;
38853;SDS011;24606;51.992;4.198;2023-11-21T06:51:53;1.88;;;0.82;;
38853;SDS011;24606;51.992;4.198;2023-11-21T06:56:55;2.58;;;1.10;;
38853;SDS011;24606;51.992;4.198;2023-11-21T07:01:59;1.65;;;0.95;;
38853;SDS011;24606;51.992;4.198;2023-11-21T07:07:01;1.88;;;1.08;;
38853;SDS011;24606;51.992;4.198;2023-11-21T07:12:03;1.73;;;0.98;;
38853;SDS011;24606;51.992;4.198;2023-11-21T07:17:08;2.03;;;1.50;;
38853;SDS011;24606;51.992;4.198;2023-11-21T07:22:12;3.05;;;1.25;;
38853;SDS011;24606;51.992;4.198;2023-11-21T07:27:14;3.33;;;1.83;;
38853;SDS011;24606;51.992;4.198;2023-11-21T07:32:17;3.07;;;1.30;;
38853;SDS011;24606;51.992;4.198;2023-11-21T07:37:18;2.95;;;1.42;;
38853;SDS011;24606;51.992;4.198;2023-11-21T07:42:20;7.22;;;1.50;;
38853;SDS011;24606;51.992;4.198;2023-11-21T07:47:23;6.63;;;2.17;;
38853;SDS011;24606;51.992;4.198;2023-11-21T07:52:27;4.25;;;1.58;;
38853;SDS011;24606;51.992;4.198;2023-11-21T07:57:28;6.73;;;2.27;;
38853;SDS011;24606;51.992;4.198;2023-11-21T08:02:31;4.63;;;2.40;;
38853;SDS011;24606;51.992;4.198;2023-11-21T08:07:34;6.47;;;2.25;;
38853;SDS011;24606;51.992;4.198;2023-11-21T08:12:36;4.30;;;2.30;;
38853;SDS011;24606;51.992;4.198;2023-11-21T08:17:39;5.32;;;1.92;;
38853;SDS011;24606;51.992;4.198;2023-11-21T08:22:41;3.92;;;1.75;;
38853;SDS011;24606;51.992;4.198;2023-11-21T08:27:43;6.30;;;2.00;;
38853;SDS011;24606;51.992;4.198;2023-11-21T08:32:46;2.33;;;1.40;;
38853;SDS011;24606;51.992;4.198;2023-11-21T08:37:48;8.30;;;2.10;;
38853;SDS011;24606;51.992;4.198;2023-11-21T08:42:52;3.70;;;1.50;;
38853;SDS011;24606;51.992;4.198;2023-11-21T08:47:56;3.60;;;1.30;;
38853;SDS011;24606;51.992;4.198;2023-11-21T08:52:58;5.00;;;1.80;;
38853;SDS011;24606;51.992;4.198;2023-11-21T08:57:59;4.07;;;1.07;;
38853;SDS011;24606;51.992;4.198;2023-11-21T09:03:04;2.60;;;1.20;;
38853;SDS011;24606;51.992;4.198;2023-11-21T09:08:08;2.92;;;1.25;;
38853;SDS011;24606;51.992;4.198;2023-11-21T09:13:10;5.87;;;1.30;;
38853;SDS011;24606;51.992;4.198;2023-11-21T09:18:14;2.80;;;1.10;;
38853;SDS011;24606;51.992;4.198;2023-11-21T09:23:16;2.17;;;1.23;;
38853;SDS011;24606;51.992;4.198;2023-11-21T09:28:17;4.30;;;1.83;;
38853;SDS011;24606;51.992;4.198;2023-11-21T09:33:21;4.20;;;1.57;;
38853;SDS011;24606;51.992;4.198;2023-11-21T09:38:25;3.13;;;1.65;;
38853;SDS011;24606;51.992;4.198;2023-11-21T09:43:28;6.20;;;1.77;;
38853;SDS011;24606;51.992;4.198;2023-11-21T09:48:33;8.63;;;1.42;;
38853;SDS011;24606;51.992;4.198;2023-11-21T09:53:38;6.28;;;2.25;;
38853;SDS011;24606;51.992;4.198;2023-11-21T09:58:44;8.90;;;5.13;;
38853;SDS011;24606;51.992;4.198;2023-11-21T10:03:47;10.17;;;6.20;;
38853;SDS011;24606;51.992;4.198;2023-11-21T10:08:49;16.75;;;9.40;;
38853;SDS011;24606;51.992;4.198;2023-11-21T10:13:52;16.17;;;8.80;;
38853;SDS011;24606;51.992;4.198;2023-11-21T10:18:59;22.50;;;11.32;;
38853;SDS011;24606;51.992;4.198;2023-11-21T10:24:01;20.17;;;10.88;;
38853;SDS011;24606;51.992;4.198;2023-11-21T10:29:03;16.40;;;8.73;;
38853;SDS011;24606;51.992;4.198;2023-11-21T10:34:13;16.97;;;9.97;;
38853;SDS011;24606;51.992;4.198;2023-11-21T10:39:16;17.00;;;10.93;;
38853;SDS011;24606;51.992;4.198;2023-11-21T10:44:19;23.55;;;12.27;;
38853;SDS011;24606;51.992;4.198;2023-11-21T10:49:24;22.02;;;13.57;;
38853;SDS011;24606;51.992;4.198;2023-11-21T10:54:27;17.83;;;11.07;;
38853;SDS011;24606;51.992;4.198;2023-11-21T10:59:29;22.33;;;14.27;;
38853;SDS011;24606;51.992;4.198;2023-11-21T11:04:33;22.98;;;14.40;;
38853;SDS011;24606;51.992;4.198;2023-11-21T11:09:38;23.08;;;14.98;;
38853;SDS011;24606;51.992;4.198;2023-11-21T11:14:40;22.83;;;13.97;;
38853;SDS011;24606;51.992;4.198;2023-11-21T11:19:45;23.15;;;14.63;;
38853;SDS011;24606;51.992;4.198;2023-11-21T11:30:16;25.08;;;15.63;;
38853;SDS011;24606;51.992;4.198;2023-11-21T11:35:26;20.30;;;13.88;;
38853;SDS011;24606;51.992;4.198;2023-11-21T11:40:40;21.85;;;13.55;;
38853;SDS011;24606;51.992;4.198;2023-11-21T11:45:45;27.13;;;14.15;;
38853;SDS011;24606;51.992;4.198;2023-11-21T11:51:03;21.55;;;13.73;;
38853;SDS011;24606;51.992;4.198;2023-11-21T11:56:24;20.77;;;13.43;;
38853;SDS011;24606;51.992;4.198;2023-11-21T12:01:28;22.80;;;12.82;;
38853;SDS011;24606;51.992;4.198;2023-11-21T12:06:34;18.98;;;10.45;;
38853;SDS011;24606;51.992;4.198;2023-11-21T12:11:36;21.33;;;12.38;;
38853;SDS011;24606;51.992;4.198;2023-11-21T12:16:38;22.05;;;12.80;;
38853;SDS011;24606;51.992;4.198;2023-11-21T12:21:41;19.37;;;11.43;;
38853;SDS011;24606;51.992;4.198;2023-11-21T12:26:44;17.02;;;11.23;;
38853;SDS011;24606;51.992;4.198;2023-11-21T12:31:46;16.63;;;10.23;;
38853;SDS011;24606;51.992;4.198;2023-11-21T12:36:52;15.25;;;9.48;;
38853;SDS011;24606;51.992;4.198;2023-11-21T12:41:54;16.90;;;10.02;;
38853;SDS011;24606;51.992;4.198;2023-11-21T12:46:57;16.85;;;9.50;;
38853;SDS011;24606;51.992;4.198;2023-11-21T12:52:00;17.10;;;8.75;;
38853;SDS011;24606;51.992;4.198;2023-11-21T12:57:04;13.07;;;8.27;;
38853;SDS011;24606;51.992;4.198;2023-11-21T13:02:08;11.45;;;7.60;;
38853;SDS011;24606;51.992;4.198;2023-11-21T13:07:11;4.82;;;3.17;;
38853;SDS011;24606;51.992;4.198;2023-11-21T13:12:14;9.27;;;5.75;;
38853;SDS011;24606;51.992;4.198;2023-11-21T13:17:18;8.35;;;4.35;;
38853;SDS011;24606;51.992;4.198;2023-11-21T13:22:24;6.68;;;3.95;;
38853;SDS011;24606;51.992;4.198;2023-11-21T13:27:25;6.32;;;4.25;;
38853;SDS011;24606;51.992;4.198;2023-11-21T13:32:27;9.25;;;4.25;;
38853;SDS011;24606;51.992;4.198;2023-11-21T13:37:31;5.47;;;3.70;;
38853;SDS011;24606;51.992;4.198;2023-11-21T13:42:32;6.22;;;3.80;;
38853;SDS011;24606;51.992;4.198;2023-11-21T13:47:34;7.17;;;3.03;;
38853;SDS011;24606;51.992;4.198;2023-11-21T13:52:39;4.43;;;3.08;;
38853;SDS011;24606;51.992;4.198;2023-11-21T13:57:41;6.10;;;3.00;;
38853;SDS011;24606;51.992;4.198;2023-11-21T14:02:45;4.45;;;2.50;;
38853;SDS011;24606;51.992;4.198;2023-11-21T14:07:50;4.63;;;2.88;;
38853;SDS011;24606;51.992;4.198;2023-11-21T14:12:51;4.28;;;2.53;;
38853;SDS011;24606;51.992;4.198;2023-11-21T14:17:53;3.30;;;2.30;;
38853;SDS011;24606;51.992;4.198;2023-11-21T14:22:56;4.32;;;2.60;;
38853;SDS011;24606;51.992;4.198;2023-11-21T14:27:58;3.58;;;2.65;;
38853;SDS011;24606;51.992;4.198;2023-11-21T14:33:00;4.35;;;2.50;;
38853;SDS011;24606;51.992;4.198;2023-11-21T14:38:05;5.10;;;2.85;;
38853;SDS011;24606;51.992;4.198;2023-11-21T14:43:07;2.80;;;2.10;;
38853;SDS011;24606;51.992;4.198;2023-11-21T14:48:09;5.15;;;2.60;;
38853;SDS011;24606;51.992;4.198;2023-11-21T14:53:17;3.78;;;2.38;;
38853;SDS011;24606;51.992;4.198;2023-11-21T14:58:39;6.50;;;3.13;;
38853;SDS011;24606;51.992;4.198;2023-11-21T15:03:41;3.00;;;2.28;;
38853;SDS011;24606;51.992;4.198;2023-11-21T15:08:51;2.40;;;1.90;;
38853;SDS011;24606;51.992;4.198;2023-11-21T15:13:59;3.53;;;2.28;;
38853;SDS011;24606;51.992;4.198;2023-11-21T15:19:07;3.75;;;2.30;;
38853;SDS011;24606;51.992;4.198;2023-11-21T15:24:10;7.00;;;2.17;;
38853;SDS011;24606;51.992;4.198;2023-11-21T15:29:12;3.72;;;2.10;;
38853;SDS011;24606;51.992;4.198;2023-11-21T15:34:15;5.95;;;2.22;;
38853;SDS011;24606;51.992;4.198;2023-11-21T15:39:18;2.65;;;1.60;;
38853;SDS011;24606;51.992;4.198;2023-11-21T15:44:21;3.72;;;1.90;;
38853;SDS011;24606;51.992;4.198;2023-11-21T15:49:25;5.78;;;2.17;;
38853;SDS011;24606;51.992;4.198;2023-11-21T15:54:30;2.47;;;1.70;;
38853;SDS011;24606;51.992;4.198;2023-11-21T15:59:31;3.30;;;2.47;;
38853;SDS011;24606;51.992;4.198;2023-11-21T16:04:33;4.88;;;1.88;;
38853;SDS011;24606;51.992;4.198;2023-11-21T16:09:38;4.78;;;3.03;;
38853;SDS011;24606;51.992;4.198;2023-11-21T16:14:42;4.85;;;2.63;;
38853;SDS011;24606;51.992;4.198;2023-11-21T16:19:45;3.58;;;1.88;;
38853;SDS011;24606;51.992;4.198;2023-11-21T16:24:48;4.70;;;2.65;;
38853;SDS011;24606;51.992;4.198;2023-11-21T16:29:50;5.22;;;2.40;;
38853;SDS011;24606;51.992;4.198;2023-11-21T16:34:52;5.03;;;2.30;;
38853;SDS011;24606;51.992;4.198;2023-11-21T16:39:56;6.13;;;3.70;;
38853;SDS011;24606;51.992;4.198;2023-11-21T16:44:58;4.20;;;2.63;;
38853;SDS011;24606;51.992;4.198;2023-11-21T16:50:00;4.13;;;3.20;;
38853;SDS011;24606;51.992;4.198;2023-11-21T16:55:04;4.25;;;2.58;;
38853;SDS011;24606;51.992;4.198;2023-11-21T17:00:09;7.25;;;3.20;;
38853;SDS011;24606;51.992;4.198;2023-11-21T17:05:12;5.40;;;3.20;;
38853;SDS011;24606;51.992;4.198;2023-11-21T17:10:16;4.22;;;3.25;;
38853;SDS011;24606;51.992;4.198;2023-11-21T17:15:19;3.53;;;2.70;;
38853;SDS011;24606;51.992;4.198;2023-11-21T17:20:22;6.35;;;3.80;;
38853;SDS011;24606;51.992;4.198;2023-11-21T17:25:27;7.75;;;4.03;;
38853;SDS011;24606;51.992;4.198;2023-11-21T17:30:29;4.45;;;3.10;;
38853;SDS011;24606;51.992;4.198;2023-11-21T17:35:32;8.80;;;4.17;;
38853;SDS011;24606;51.992;4.198;2023-11-21T17:40:36;6.30;;;4.10;;
38853;SDS011;24606;51.992;4.198;2023-11-21T17:45:40;6.70;;;3.47;;
38853;SDS011;24606;51.992;4.198;2023-11-21T17:50:41;5.90;;;2.70;;
38853;SDS011;24606;51.992;4.198;2023-11-21T17:55:45;3.75;;;2.40;;
38853;SDS011;24606;51.992;4.198;2023-11-21T18:00:46;4.68;;;2.25;;
38853;SDS011;24606;51.992;4.198;2023-11-21T18:05:48;4.23;;;2.47;;
38853;SDS011;24606;51.992;4.198;2023-11-21T18:10:52;7.50;;;3.17;;
38853;SDS011;24606;51.992;4.198;2023-11-21T18:15:54;14.20;;;4.88;;
38853;SDS011;24606;51.992;4.198;2023-11-21T18:20:55;11.30;;;4.93;;
38853;SDS011;24606;51.992;4.198;2023-11-21T18:25:58;16.90;;;5.50;;
38853;SDS011;24606;51.992;4.198;2023-11-21T18:31:00;11.35;;;4.80;;
38853;SDS011;24606;51.992;4.198;2023-11-21T18:36:06;10.07;;;4.45;;
38853;SDS011;24606;51.992;4.198;2023-11-21T18:41:10;7.18;;;3.67;;
38853;SDS011;24606;51.992;4.198;2023-11-21T18:46:12;4.20;;;2.80;;
38853;SDS011;24606;51.992;4.198;2023-11-21T18:51:13;9.45;;;2.30;;
38853;SDS011;24606;51.992;4.198;2023-11-21T18:56:20;10.77;;;2.33;;
38853;SDS011;24606;51.992;4.198;2023-11-21T19:01:24;8.38;;;3.38;;
38853;SDS011;24606;51.992;4.198;2023-11-21T19:06:28;5.28;;;2.40;;
38853;SDS011;24606;51.992;4.198;2023-11-21T19:11:32;4.28;;;1.80;;
38853;SDS011;24606;51.992;4.198;2023-11-21T19:16:34;6.72;;;2.00;;
38853;SDS011;24606;51.992;4.198;2023-11-21T19:21:36;3.67;;;2.17;;
38853;SDS011;24606;51.992;4.198;2023-11-21T19:26:39;5.17;;;2.00;;
38853;SDS011;24606;51.992;4.198;2023-11-21T19:31:41;5.03;;;2.10;;
38853;SDS011;24606;51.992;4.198;2023-11-21T19:36:42;6.97;;;1.88;;
38853;SDS011;24606;51.992;4.198;2023-11-21T19:41:46;3.87;;;1.70;;
38853;SDS011;24606;51.992;4.198;2023-11-21T19:46:49;5.55;;;2.15;;
38853;SDS011;24606;51.992;4.198;2023-11-21T19:51:51;2.53;;;1.75;;
38853;SDS011;24606;51.992;4.198;2023-11-21T19:56:54;3.60;;;1.98;;
38853;SDS011;24606;51.992;4.198;2023-11-21T20:01:56;5.65;;;1.85;;
38853;SDS011;24606;51.992;4.198;2023-11-21T20:06:59;5.82;;;1.90;;
38853;SDS011;24606;51.992;4.198;2023-11-21T20:12:02;6.03;;;2.13;;
38853;SDS011;24606;51.992;4.198;2023-11-21T20:17:04;8.35;;;3.05;;
38853;SDS011;24606;51.992;4.198;2023-11-21T20:22:06;4.90;;;2.77;;
38853;SDS011;24606;51.992;4.198;2023-11-21T20:27:09;3.80;;;2.67;;
38853;SDS011;24606;51.992;4.198;2023-11-21T20:32:11;6.97;;;2.50;;
38853;SDS011;24606;51.992;4.198;2023-11-21T20:37:13;7.45;;;2.63;;
38853;SDS011;24606;51.992;4.198;2023-11-21T20:42:16;8.57;;;2.97;;
38853;SDS011;24606;51.992;4.198;2023-11-21T20:47:18;11.35;;;3.17;;
38853;SDS011;24606;51.992;4.198;2023-11-21T20:52:20;6.63;;;2.50;;
38853;SDS011;24606;51.992;4.198;2023-11-21T20:57:23;8.80;;;2.60;;
38853;SDS011;24606;51.992;4.198;2023-11-21T21:02:25;7.20;;;2.95;;
38853;SDS011;24606;51.992;4.198;2023-11-21T21:07:27;10.93;;;2.87;;
38853;SDS011;24606;51.992;4.198;2023-11-21T21:12:30;11.02;;;3.22;;
38853;SDS011;24606;51.992;4.198;2023-11-21T21:17:32;10.07;;;3.05;;
38853;SDS011;24606;51.992;4.198;2023-11-21T21:22:34;14.68;;;4.03;;
38853;SDS011;24606;51.992;4.198;2023-11-21T21:27:37;11.53;;;3.13;;
38853;SDS011;24606;51.992;4.198;2023-11-21T21:32:39;7.32;;;2.65;;
38853;SDS011;24606;51.992;4.198;2023-11-21T21:37:41;8.03;;;2.70;;
38853;SDS011;24606;51.992;4.198;2023-11-21T21:42:44;10.95;;;2.70;;
38853;SDS011;24606;51.992;4.198;2023-11-21T21:47:46;6.88;;;3.13;;
38853;SDS011;24606;51.992;4.198;2023-11-21T21:52:49;10.43;;;2.70;;
38853;SDS011;24606;51.992;4.198;2023-11-21T21:57:52;6.93;;;2.92;;
38853;SDS011;24606;51.992;4.198;2023-11-21T22:02:54;9.48;;;3.58;;
38853;SDS011;24606;51.992;4.198;2023-11-21T22:07:57;11.45;;;3.67;;
38853;SDS011;24606;51.992;4.198;2023-11-21T22:13:00;12.00;;;3.37;;
38853;SDS011;24606;51.992;4.198;2023-11-21T22:18:02;8.88;;;3.40;;
38853;SDS011;24606;51.992;4.198;2023-11-21T22:23:04;16.35;;;3.55;;
38853;SDS011;24606;51.992;4.198;2023-11-21T22:28:07;10.23;;;3.90;;
38853;SDS011;24606;51.992;4.198;2023-11-21T22:33:09;12.98;;;3.45;;
38853;SDS011;24606;51.992;4.198;2023-11-21T22:38:11;7.38;;;3.00;;
38853;SDS011;24606;51.992;4.198;2023-11-21T22:43:16;6.82;;;3.47;;
38853;SDS011;24606;51.992;4.198;2023-11-21T22:48:18;6.65;;;2.95;;
38853;SDS011;24606;51.992;4.198;2023-11-21T22:53:20;4.87;;;2.80;;
38853;SDS011;24606;51.992;4.198;2023-11-21T22:58:23;5.63;;;3.00;;
38853;SDS011;24606;51.992;4.198;2023-11-21T23:03:25;4.88;;;2.50;;
38853;SDS011;24606;51.992;4.198;2023-11-21T23:08:27;5.13;;;2.63;;
38853;SDS011;24606;51.992;4.198;2023-11-21T23:13:31;8.80;;;3.17;;
38853;SDS011;24606;51.992;4.198;2023-11-21T23:18:33;5.07;;;2.28;;
38853;SDS011;24606;51.992;4.198;2023-11-21T23:23:34;5.83;;;2.40;;
38853;SDS011;24606;51.992;4.198;2023-11-21T23:28:37;4.93;;;2.10;;
38853;SDS011;24606;51.992;4.198;2023-11-21T23:33:39;6.18;;;2.65;;
38853;SDS011;24606;51.992;4.198;2023-11-21T23:38:41;3.07;;;1.73;;
38853;SDS011;24606;51.992;4.198;2023-11-21T23:43:45;5.97;;;2.75;;
38853;SDS011;24606;51.992;4.198;2023-11-21T23:48:47;7.82;;;2.60;;
38853;SDS011;24606;51.992;4.198;2023-11-21T23:53:48;4.75;;;2.47;;
38853;SDS011;24606;51.992;4.198;2023-11-21T23:58:52;4.97;;;2.20;;
